KBIS/BIS METAR and TAF weather

Enter ICAO airport designator
Station Type Date Time Source
KBIS METAR 2022/12/08 12:07 UTC NOAA

KBIS 081207Z 00000KT 10SM SCT002 M17/M20 A3012 RMK AO2 T11721200


Station Type Date Time Source
KBIS Decoded METAR 2022/12/08 12:07 UTC NOAA

BISMARCK MUNICIPAL AIRPORT, ND, United States (KBIS) 46-47N 100-45W 503M
Dec 08, 2022 - 07:07 AM EST / 2022.12.08 1207 UTC
Wind: Calm:0
Visibility: 10 mile(s):0
Sky conditions: partly cloudy
Temperature: 1.0 F (-17.2 C)
Dew Point: -4.0 F (-20.0 C)
Relative Humidity: 78%
Pressure (altimeter): 30.12 in. Hg (1019 hPa)
ob: KBIS 081207Z 00000KT 10SM SCT002 M17/M20 A3012 RMK AO2 T11721200
cycle: 12

Station Type Date Time Source
KBIS TAF 2022/12/08 12:24 UTC NOAA

TAF KBIS 081123Z 0812/0912 VRB05KT P6SM SCT003
FM090400 VRB05KT P6SM BKN008

Example: see airport list